Pagrindinis puslapis
METAR-TAF:

METAR-TAF

Oro uostai :

Santa Krusas, Rio de Janeiro, Brazilija

platuma: 22-56S, ilguma: 043-43W, Aukštis: 3 m

Dabartinis oras

Ataskaita buvo paskelbta 32 minutes, ne 12:00 UTC
Vėjas 5 kt iš Šiaurės/Šiaurės Rytų
Temperatūra 23°C
Drėgmė 83%
Slėgis 1023 hPa
Matomumas: 5000 m
Išsisklaidę debesys ne aukštis 1500 ft
Išsisklaidę debesys ne aukštis 3000 ft
Su prošvaistėmis ne aukštis 5000 ft
rūkana

METAR: SBSC 041200Z 02005KT 5000 BR SCT015 SCT030 BKN050 23/20 Q1023

Laikas: 09:32 (12:32 UTC)

Prognozė

Ataskaita buvo paskelbta 9 valandos ir 32 minutes, ne 03:00 UTC
Prognozė galioja nuo 04 metu 06 UTC su 04 metu 18 UTC
Vėjas 5 kt iš Šiaurės Rytų
Matomumas: 5000 m
Su prošvaistėmis ne aukštis 1000 ft
rūkana
Tapsmas
nuo 04 metu 09 UTC su 04 metu 11 UTC
Matomumas 10 km arba daugiau
Mažai debesys ne aukštis 2000 ft

TAF: SBSC 040300Z 0406/0418 04005KT 5000 BR BKN010 TN16/0406Z TX27/0416Z BECMG 0409/0411 9999 FEW020 RMK PEG

Orai ataskaitas ir orų prognozės (METAR, TAF).

turimą stotys yra geltonos ir raudonos taškus žemėlapyje.

Perkelti pele per norėdami pamatyti stoties vardą.

Tada spustelėkite, norėdami matyti oro stebėjimo ir prognozės.

Norėdami pakeisti žemėlapį: spustelėkite ant žalios mygtukų su juodo kryžiaus žemyn,; žalią mygtuką su brūkšneliu, jei norite nutolinti; arba žalių rodyklių gretimoms žemėlapius.


METAR-TAF: